createdAt,value
2022-10-02T00:00:20.573Z,89.95
2022-10-02T00:02:50.581Z,89.98
2022-10-02T00:05:20.247Z,89.95
2022-10-02T00:07:52.046Z,89.91
2022-10-02T00:10:31.531Z,89.89
2022-10-02T00:13:03.280Z,89.84
2022-10-02T00:15:32.301Z,89.46
2022-10-02T00:18:04.509Z,89.50
2022-10-02T00:20:58.633Z,89.40
2022-10-02T00:23:33.456Z,89.66
2022-10-02T00:26:09.443Z,89.57
2022-10-02T00:28:58.749Z,89.75
2022-10-02T00:31:31.120Z,89.33
2022-10-02T00:34:05.382Z,89.77
2022-10-02T00:36:56.585Z,90.17
2022-10-02T00:39:47.291Z,89.93
2022-10-02T00:42:45.713Z,89.60
2022-10-02T00:45:45.183Z,89.08
2022-10-02T00:48:34.663Z,88.91
2022-10-02T00:51:14.365Z,88.90
2022-10-02T00:54:19.087Z,88.79
2022-10-02T00:57:11.714Z,88.73
2022-10-02T00:59:57.075Z,88.56
2022-10-02T01:02:26.357Z,88.58
2022-10-02T01:04:54.376Z,88.79
2022-10-02T01:07:21.610Z,88.97
2022-10-02T01:09:48.297Z,89.19
2022-10-02T01:12:14.925Z,89.13
2022-10-02T01:14:41.840Z,89.07
2022-10-02T01:17:30.624Z,89.46
2022-10-02T01:19:59.420Z,89.55
2022-10-02T01:22:49.140Z,89.28
2022-10-02T01:25:15.744Z,89.63
2022-10-02T01:27:42.934Z,89.98
2022-10-02T01:30:12.416Z,89.80
2022-10-02T01:32:44.052Z,90.20
2022-10-02T01:35:10.793Z,90.22
2022-10-02T01:37:41.312Z,90.31
2022-10-02T01:40:11.031Z,90.37
2022-10-02T01:42:38.826Z,90.64
2022-10-02T01:45:06.823Z,90.65
2022-10-02T01:47:43.992Z,90.73
2022-10-02T01:50:28.912Z,90.93
2022-10-02T01:53:25.575Z,91.00
2022-10-02T01:56:27.316Z,91.32
2022-10-02T01:59:17.366Z,91.44
2022-10-02T02:02:12.215Z,91.47
2022-10-02T02:04:46.365Z,91.62
2022-10-02T02:07:28.504Z,91.91
2022-10-02T02:10:18.326Z,92.12
2022-10-02T02:13:04.478Z,92.02
2022-10-02T02:15:42.983Z,92.23
2022-10-02T02:18:33.541Z,92.50
2022-10-02T02:21:08.863Z,92.54
2022-10-02T02:23:38.952Z,92.52
2022-10-02T02:26:12.220Z,92.51
2022-10-02T02:28:45.004Z,92.94
2022-10-02T02:31:16.546Z,92.76
2022-10-02T02:33:47.848Z,92.84
2022-10-02T02:36:18.484Z,92.79
2022-10-02T02:38:57.707Z,93.06
2022-10-02T02:41:28.200Z,93.24
2022-10-02T02:44:14.755Z,93.39
2022-10-02T02:47:11.166Z,93.16
2022-10-02T02:50:00.122Z,93.42
2022-10-02T02:52:31.103Z,93.46
2022-10-02T02:55:07.772Z,93.81
2022-10-02T02:57:43.566Z,93.65
2022-10-02T03:00:15.572Z,93.77
2022-10-02T03:02:42.315Z,93.79
2022-10-02T03:05:14.799Z,93.70
2022-10-02T03:07:56.720Z,93.86
2022-10-02T03:10:35.520Z,93.77
2022-10-02T03:13:14.947Z,93.75
2022-10-02T03:15:50.279Z,94.18
2022-10-02T03:18:38.397Z,93.96
2022-10-02T03:21:14.535Z,93.83
2022-10-02T03:23:58.445Z,93.63
2022-10-02T03:26:37.317Z,93.93
2022-10-02T03:29:10.659Z,93.69
2022-10-02T03:31:37.481Z,93.56
2022-10-02T03:34:05.247Z,93.54
2022-10-02T03:36:31.692Z,93.77
2022-10-02T03:39:23.743Z,93.60
2022-10-02T03:41:48.476Z,93.66
2022-10-02T03:44:14.808Z,93.77
2022-10-02T03:46:41.263Z,93.80
2022-10-02T03:49:07.664Z,93.77
2022-10-02T03:51:34.025Z,93.86
2022-10-02T03:54:00.426Z,94.02
2022-10-02T03:56:36.731Z,93.88
2022-10-02T03:59:10.536Z,94.00
2022-10-02T04:01:46.887Z,93.59
2022-10-02T04:04:21.417Z,93.81
2022-10-02T04:06:51.814Z,93.39
2022-10-02T04:10:04.266Z,93.64
2022-10-02T04:12:40.103Z,93.54
2022-10-02T04:15:20.469Z,93.36
2022-10-02T04:18:03.024Z,93.26
2022-10-02T04:20:41.594Z,93.30
2022-10-02T04:23:25.828Z,93.27
2022-10-02T04:25:59.864Z,93.44
2022-10-02T04:28:35.136Z,93.14
2022-10-02T04:31:02.701Z,93.26
2022-10-02T04:33:29.417Z,93.59
2022-10-02T04:36:06.330Z,93.59
2022-10-02T04:38:35.503Z,93.71
2022-10-02T04:41:08.022Z,93.61
2022-10-02T04:43:57.758Z,93.65
2022-10-02T04:46:42.830Z,93.54
2022-10-02T04:49:09.116Z,93.53
2022-10-02T04:51:47.675Z,93.48
2022-10-02T04:54:29.341Z,93.47
2022-10-02T04:57:20.120Z,92.97
2022-10-02T05:00:10.935Z,93.21
2022-10-02T05:03:05.961Z,92.98
2022-10-02T05:06:00.213Z,93.03
2022-10-02T05:08:35.573Z,93.21
2022-10-02T05:11:04.764Z,92.96
2022-10-02T05:13:56.037Z,93.43
2022-10-02T05:16:55.904Z,93.50
2022-10-02T05:20:07.492Z,93.67
2022-10-02T05:22:55.728Z,93.79
2022-10-02T05:25:24.704Z,93.79
2022-10-02T05:28:12.489Z,93.93
2022-10-02T05:30:49.714Z,93.88
2022-10-02T05:33:34.833Z,94.22
2022-10-02T05:36:25.668Z,94.06
2022-10-02T05:39:07.225Z,94.25
2022-10-02T05:41:50.360Z,94.26
2022-10-02T05:44:22.149Z,94.19
2022-10-02T05:47:01.403Z,94.29
2022-10-02T05:49:37.865Z,94.31
2022-10-02T05:52:11.657Z,94.45
2022-10-02T05:54:44.309Z,94.36
2022-10-02T05:57:21.308Z,94.04
2022-10-02T06:00:06.550Z,94.21
2022-10-02T06:02:57.067Z,94.13
2022-10-02T06:05:41.487Z,94.04
2022-10-02T06:08:14.213Z,93.77
2022-10-02T06:10:48.807Z,94.00
2022-10-02T06:13:30.287Z,93.93
2022-10-02T06:16:14.596Z,93.89
2022-10-02T06:18:46.332Z,93.96
2022-10-02T06:21:31.272Z,93.98
2022-10-02T06:24:04.692Z,93.93
2022-10-02T06:26:38.326Z,93.99
2022-10-02T06:29:15.999Z,93.88
2022-10-02T06:31:54.658Z,94.02
2022-10-02T06:34:22.483Z,94.12
2022-10-02T06:37:22.032Z,93.86
2022-10-02T06:40:06.523Z,93.89
2022-10-02T06:42:53.032Z,93.98
2022-10-02T06:45:39.079Z,94.03
2022-10-02T06:48:22.216Z,93.88
2022-10-02T06:51:08.752Z,93.77
2022-10-02T06:53:46.143Z,93.73
2022-10-02T06:56:31.212Z,93.65
2022-10-02T06:59:16.308Z,93.83
2022-10-02T07:01:56.405Z,93.61
2022-10-02T07:04:45.033Z,93.47
2022-10-02T07:07:49.756Z,93.43
2022-10-02T07:10:37.372Z,93.39
2022-10-02T07:13:19.907Z,93.26
2022-10-02T07:16:09.255Z,93.27
2022-10-02T07:19:00.817Z,93.26
2022-10-02T07:21:49.316Z,93.11
2022-10-02T07:24:42.198Z,93.01
2022-10-02T07:27:38.856Z,92.85
2022-10-02T07:30:09.064Z,92.83
2022-10-02T07:32:49.028Z,92.58
2022-10-02T07:35:21.956Z,92.45
2022-10-02T07:38:03.184Z,92.37
2022-10-02T07:40:46.292Z,92.22
2022-10-02T07:43:27.397Z,91.82
2022-10-02T07:46:20.272Z,92.05
2022-10-02T07:49:14.281Z,91.75
2022-10-02T07:51:51.424Z,91.68
2022-10-02T07:54:26.915Z,91.65
2022-10-02T07:56:56.972Z,91.41
2022-10-02T07:59:23.621Z,91.16
2022-10-02T08:01:51.066Z,91.16
2022-10-02T08:04:31.359Z,90.72
2022-10-02T08:07:03.723Z,90.44
2022-10-02T08:09:53.249Z,90.25
2022-10-02T08:12:53.724Z,89.72
2022-10-02T08:15:22.305Z,89.50
2022-10-02T08:17:52.689Z,89.15
2022-10-02T08:20:33.944Z,89.13
2022-10-02T08:23:04.143Z,89.15
2022-10-02T08:25:38.972Z,88.65
2022-10-02T08:28:16.627Z,88.37
2022-10-02T08:30:43.188Z,87.95
2022-10-02T08:33:17.869Z,87.61
2022-10-02T08:36:04.573Z,87.37
2022-10-02T08:38:40.364Z,87.00
2022-10-02T08:41:49.164Z,86.32
2022-10-02T08:44:40.837Z,84.93
2022-10-02T08:47:19.318Z,84.90
2022-10-02T08:50:04.470Z,84.42
2022-10-02T08:53:04.210Z,83.65
2022-10-02T08:55:58.937Z,83.31
2022-10-02T08:58:39.251Z,83.29
2022-10-02T09:01:50.739Z,83.03
2022-10-02T09:04:28.165Z,82.93
2022-10-02T09:07:03.233Z,81.97
2022-10-02T09:10:07.143Z,82.34
2022-10-02T09:13:02.612Z,82.02
2022-10-02T09:15:40.273Z,80.83
2022-10-02T09:18:15.676Z,79.54
2022-10-02T09:20:55.192Z,79.05
2022-10-02T09:23:36.764Z,79.29
2022-10-02T09:26:18.979Z,80.47
2022-10-02T09:29:09.412Z,80.37
2022-10-02T09:31:57.654Z,79.80
2022-10-02T09:34:30.085Z,78.93
2022-10-02T09:37:40.697Z,78.33
2022-10-02T09:40:34.246Z,78.78
2022-10-02T09:43:18.115Z,78.81
2022-10-02T09:46:06.690Z,78.34
2022-10-02T09:48:54.933Z,77.51
2022-10-02T09:51:46.353Z,77.25
2022-10-02T09:54:29.672Z,75.74
2022-10-02T09:57:17.613Z,74.87
2022-10-02T10:00:17.654Z,74.64
2022-10-02T10:03:19.538Z,75.19
2022-10-02T10:06:16.340Z,73.87
2022-10-02T10:09:01.292Z,73.94
2022-10-02T10:11:56.432Z,73.13
2022-10-02T10:14:50.557Z,73.00
2022-10-02T10:17:39.016Z,73.29
2022-10-02T10:20:12.497Z,72.60
2022-10-02T10:22:44.861Z,72.23
2022-10-02T10:25:37.529Z,71.48
2022-10-02T10:28:25.968Z,70.51
2022-10-02T10:31:16.807Z,71.39
2022-10-02T10:33:52.314Z,69.45
2022-10-02T10:36:55.539Z,68.63
2022-10-02T10:39:49.467Z,67.56
2022-10-02T10:42:37.777Z,67.45
2022-10-02T10:45:26.345Z,67.55
2022-10-02T10:48:31.205Z,68.09
2022-10-02T10:51:14.112Z,68.99
2022-10-02T10:54:00.997Z,69.65
2022-10-02T10:56:50.138Z,69.26
2022-10-02T10:59:42.283Z,69.19
2022-10-02T11:02:24.098Z,69.51
2022-10-02T11:05:06.119Z,69.54
2022-10-02T11:07:39.259Z,68.75
2022-10-02T11:10:28.585Z,69.24
2022-10-02T11:13:13.560Z,69.67
2022-10-02T11:16:06.546Z,70.59
2022-10-02T11:18:48.226Z,70.83
2022-10-02T11:21:45.154Z,71.06
2022-10-02T11:24:29.783Z,70.44
2022-10-02T11:27:38.293Z,69.20
2022-10-02T11:30:24.148Z,68.29
2022-10-02T11:33:08.745Z,66.09
2022-10-02T11:35:52.562Z,66.11
2022-10-02T11:38:35.418Z,65.00
2022-10-02T11:41:04.790Z,65.67
2022-10-02T11:43:43.904Z,65.50
2022-10-02T11:46:45.471Z,64.93
2022-10-02T11:49:27.048Z,65.56
2022-10-02T11:52:00.274Z,64.65
2022-10-02T11:54:50.679Z,64.98
2022-10-02T11:57:19.882Z,64.47
2022-10-02T12:00:13.968Z,63.31
2022-10-02T12:03:01.697Z,61.68
2022-10-02T12:05:46.606Z,62.29
2022-10-02T12:08:19.972Z,63.15
2022-10-02T12:10:52.769Z,63.06
2022-10-02T12:13:45.175Z,62.08
2022-10-02T12:16:52.323Z,60.96
2022-10-02T12:19:39.535Z,59.33
2022-10-02T12:23:03.615Z,60.76
2022-10-02T12:26:14.285Z,61.06
2022-10-02T12:29:14.441Z,60.92
2022-10-02T12:31:58.983Z,61.45
2022-10-02T12:34:58.173Z,62.51
2022-10-02T12:37:48.302Z,62.12
2022-10-02T12:40:21.261Z,60.92
2022-10-02T12:43:19.362Z,60.02
2022-10-02T12:46:23.303Z,60.83
2022-10-02T12:49:12.282Z,59.50
2022-10-02T12:52:00.911Z,58.58
2022-10-02T12:54:59.785Z,57.35
2022-10-02T12:57:58.698Z,56.32
2022-10-02T13:00:53.931Z,57.75
2022-10-02T13:04:07.156Z,56.95
2022-10-02T13:06:46.534Z,57.09
2022-10-02T13:09:12.828Z,56.97
2022-10-02T13:12:00.868Z,57.83
2022-10-02T13:14:52.289Z,57.94
2022-10-02T13:17:25.377Z,57.58
2022-10-02T13:20:30.028Z,58.00
2022-10-02T13:22:58.107Z,57.00
2022-10-02T13:25:39.588Z,56.11
2022-10-02T13:28:13.579Z,55.92
2022-10-02T13:30:53.320Z,56.47
2022-10-02T13:33:53.037Z,54.85
2022-10-02T13:36:35.055Z,55.41
2022-10-02T13:39:04.042Z,57.31
2022-10-02T13:41:47.522Z,58.03
2022-10-02T13:44:26.117Z,59.07
2022-10-02T13:47:04.526Z,59.13
2022-10-02T13:50:15.308Z,59.69
2022-10-02T13:53:05.313Z,59.81
2022-10-02T13:55:41.961Z,58.73
2022-10-02T13:58:28.367Z,57.36
2022-10-02T14:01:16.193Z,55.31
2022-10-02T14:03:54.353Z,54.40
2022-10-02T14:06:58.552Z,54.59
2022-10-02T14:09:27.896Z,54.14
2022-10-02T14:12:00.923Z,53.06
2022-10-02T14:14:56.082Z,53.58
2022-10-02T14:17:35.907Z,53.73
2022-10-02T14:20:23.529Z,54.23
2022-10-02T14:22:55.728Z,52.10
2022-10-02T14:25:35.875Z,50.86
2022-10-02T14:28:44.202Z,50.53
2022-10-02T14:31:40.450Z,50.69
2022-10-02T14:34:25.047Z,51.78
2022-10-02T14:37:28.988Z,52.01
2022-10-02T14:40:00.565Z,51.03
2022-10-02T14:43:18.447Z,51.96
2022-10-02T14:46:03.229Z,51.17
2022-10-02T14:48:45.991Z,51.51
2022-10-02T14:51:45.600Z,50.60
2022-10-02T14:54:29.784Z,50.76
2022-10-02T14:57:29.863Z,50.94
2022-10-02T15:00:04.674Z,51.59
2022-10-02T15:02:55.956Z,52.36
2022-10-02T15:05:37.482Z,52.50
2022-10-02T15:08:14.104Z,53.48
2022-10-02T15:10:42.288Z,54.36
2022-10-02T15:13:37.355Z,55.10
2022-10-02T15:16:38.768Z,55.78
2022-10-02T15:19:40.325Z,55.81
2022-10-02T15:22:27.139Z,56.50
2022-10-02T15:25:17.814Z,56.79
2022-10-02T15:28:31.498Z,56.96
2022-10-02T15:31:22.998Z,56.97
2022-10-02T15:34:03.908Z,57.30
2022-10-02T15:36:48.975Z,57.32
2022-10-02T15:39:27.275Z,57.41
2022-10-02T15:42:04.572Z,57.23
2022-10-02T15:44:52.092Z,57.48
2022-10-02T15:47:38.110Z,58.01
2022-10-02T15:50:40.771Z,57.82
2022-10-02T15:53:54.472Z,58.05
2022-10-02T15:56:32.649Z,58.14
2022-10-02T15:59:17.978Z,58.85
2022-10-02T16:01:53.705Z,59.10
2022-10-02T16:04:29.576Z,59.84
2022-10-02T16:07:14.484Z,60.16
2022-10-02T16:09:54.561Z,60.60
2022-10-02T16:12:36.995Z,61.16
2022-10-02T16:15:16.147Z,61.27
2022-10-02T16:18:04.000Z,61.21
2022-10-02T16:20:46.071Z,61.39
2022-10-02T16:23:30.345Z,61.66
2022-10-02T16:26:12.437Z,61.99
2022-10-02T16:29:03.267Z,61.90
2022-10-02T16:32:03.192Z,62.20
2022-10-02T16:34:59.657Z,62.44
2022-10-02T16:37:37.994Z,63.12
2022-10-02T16:40:23.141Z,63.11
2022-10-02T16:43:12.766Z,63.32
2022-10-02T16:45:52.130Z,63.72
2022-10-02T16:48:29.310Z,64.06
2022-10-02T16:51:14.128Z,64.43
2022-10-02T16:53:48.476Z,64.79
2022-10-02T16:56:32.512Z,65.07
2022-10-02T16:59:08.196Z,65.19
2022-10-02T17:02:13.113Z,65.55
2022-10-02T17:04:46.785Z,65.76
2022-10-02T17:07:45.291Z,65.97
2022-10-02T17:10:24.540Z,66.61
2022-10-02T17:12:56.055Z,67.04
2022-10-02T17:15:38.925Z,67.54
2022-10-02T17:18:17.195Z,67.86
2022-10-02T17:20:49.771Z,68.36
2022-10-02T17:23:39.491Z,69.09
2022-10-02T17:26:11.780Z,69.10
2022-10-02T17:28:51.643Z,69.60
2022-10-02T17:31:36.648Z,69.90
2022-10-02T17:34:20.994Z,70.01
2022-10-02T17:36:53.843Z,70.64
2022-10-02T17:39:38.377Z,71.00
2022-10-02T17:42:39.539Z,71.02
2022-10-02T17:45:26.379Z,71.46
2022-10-02T17:48:04.437Z,71.51
2022-10-02T17:50:44.672Z,71.77
2022-10-02T17:53:44.677Z,72.03
2022-10-02T17:56:49.908Z,72.16
2022-10-02T17:59:40.624Z,71.95
2022-10-02T18:02:22.126Z,72.22
2022-10-02T18:05:11.753Z,72.26
2022-10-02T18:08:03.057Z,72.68
2022-10-02T18:10:39.376Z,72.89
2022-10-02T18:13:25.927Z,72.80
2022-10-02T18:16:17.956Z,73.22
2022-10-02T18:19:37.166Z,73.70
2022-10-02T18:22:17.738Z,74.04
2022-10-02T18:25:02.723Z,74.20
2022-10-02T18:27:32.062Z,74.00
2022-10-02T18:30:29.985Z,74.55
2022-10-02T18:33:27.235Z,74.62
2022-10-02T18:36:15.212Z,74.69
2022-10-02T18:38:41.476Z,74.74
2022-10-02T18:41:45.700Z,74.92
2022-10-02T18:44:33.406Z,75.15
2022-10-02T18:47:28.781Z,74.98
2022-10-02T18:50:22.752Z,75.34
2022-10-02T18:52:58.178Z,75.92
2022-10-02T18:55:39.688Z,76.11
2022-10-02T18:58:07.803Z,76.06
2022-10-02T19:01:03.838Z,76.46
2022-10-02T19:03:50.058Z,76.75
2022-10-02T19:06:32.792Z,77.09
2022-10-02T19:09:08.581Z,77.05
2022-10-02T19:11:46.192Z,76.80
2022-10-02T19:14:15.349Z,76.84
2022-10-02T19:16:57.022Z,77.25
2022-10-02T19:19:24.362Z,77.80
2022-10-02T19:21:57.246Z,78.01
2022-10-02T19:24:30.629Z,78.02
2022-10-02T19:27:04.654Z,78.15
2022-10-02T19:29:41.653Z,78.69
2022-10-02T19:32:18.305Z,78.35
2022-10-02T19:34:48.676Z,78.47
2022-10-02T19:37:18.144Z,78.39
2022-10-02T19:39:54.994Z,78.70
2022-10-02T19:42:25.922Z,78.87
2022-10-02T19:45:02.737Z,78.95
2022-10-02T19:47:50.183Z,78.97
2022-10-02T19:50:23.199Z,79.38
2022-10-02T19:52:57.347Z,79.58
2022-10-02T19:55:32.199Z,79.66
2022-10-02T19:58:38.207Z,79.78
2022-10-02T20:01:06.844Z,80.13
2022-10-02T20:03:33.955Z,80.08
2022-10-02T20:06:12.126Z,79.66
2022-10-02T20:08:44.838Z,79.73
2022-10-02T20:11:15.142Z,79.84
2022-10-02T20:13:53.403Z,80.21
2022-10-02T20:16:43.391Z,80.29
2022-10-02T20:19:17.974Z,80.04
2022-10-02T20:21:52.788Z,80.28
2022-10-02T20:24:37.245Z,79.93
2022-10-02T20:27:15.090Z,79.69
2022-10-02T20:29:47.137Z,79.74
2022-10-02T20:32:24.032Z,79.25
2022-10-02T20:34:57.256Z,79.51
2022-10-02T20:37:29.452Z,79.21
2022-10-02T20:40:21.507Z,79.54
2022-10-02T20:42:54.973Z,79.54
2022-10-02T20:45:28.005Z,79.71
2022-10-02T20:48:55.570Z,79.44
2022-10-02T20:52:05.872Z,79.64
2022-10-02T20:54:42.245Z,79.53
2022-10-02T20:57:43.115Z,79.70
2022-10-02T21:00:20.977Z,79.89
2022-10-02T21:03:24.334Z,79.79
2022-10-02T21:06:46.181Z,80.32
2022-10-02T21:09:30.604Z,80.59
2022-10-02T21:12:29.832Z,80.71
2022-10-02T21:15:27.427Z,81.00
2022-10-02T21:18:32.929Z,80.74
2022-10-02T21:21:19.279Z,80.59
2022-10-02T21:24:19.019Z,80.64
2022-10-02T21:27:06.893Z,80.96
2022-10-02T21:29:43.895Z,81.25
2022-10-02T21:32:24.997Z,81.27
2022-10-02T21:35:16.575Z,81.50
2022-10-02T21:38:10.054Z,81.48
2022-10-02T21:40:58.099Z,80.85
2022-10-02T21:43:43.101Z,80.93
2022-10-02T21:46:33.845Z,81.09
2022-10-02T21:49:37.527Z,80.84
2022-10-02T21:52:22.170Z,81.29
2022-10-02T21:55:13.442Z,81.76
2022-10-02T21:58:18.895Z,82.00
2022-10-02T22:01:07.677Z,81.83
2022-10-02T22:04:02.009Z,81.93
2022-10-02T22:06:54.622Z,81.82
2022-10-02T22:09:36.976Z,82.11
2022-10-02T22:12:20.529Z,82.08
2022-10-02T22:14:53.719Z,82.20
2022-10-02T22:17:40.837Z,82.15
2022-10-02T22:20:31.842Z,82.13
2022-10-02T22:23:03.199Z,81.74
2022-10-02T22:25:59.568Z,81.53
2022-10-02T22:28:37.903Z,81.96
2022-10-02T22:31:20.964Z,82.30
2022-10-02T22:33:58.866Z,82.28
2022-10-02T22:36:36.358Z,82.49
2022-10-02T22:39:10.790Z,82.66
2022-10-02T22:41:49.737Z,82.81
2022-10-02T22:44:51.696Z,83.03
2022-10-02T22:47:17.958Z,83.14
2022-10-02T22:49:57.629Z,83.08
2022-10-02T22:52:48.888Z,82.75
2022-10-02T22:55:21.444Z,82.85
2022-10-02T22:58:02.300Z,82.68
2022-10-02T23:00:49.127Z,82.91
2022-10-02T23:03:28.948Z,83.07
2022-10-02T23:06:06.572Z,83.12
2022-10-02T23:08:47.289Z,83.04
2022-10-02T23:11:19.340Z,83.25
2022-10-02T23:14:00.860Z,83.54
2022-10-02T23:16:41.215Z,83.69
2022-10-02T23:19:18.331Z,83.82
2022-10-02T23:21:53.079Z,83.70
2022-10-02T23:24:29.683Z,83.94
2022-10-02T23:27:04.932Z,84.15
2022-10-02T23:29:53.875Z,83.97
2022-10-02T23:32:35.378Z,83.91
2022-10-02T23:35:28.458Z,84.29
2022-10-02T23:38:11.913Z,83.99
2022-10-02T23:41:32.619Z,84.40
2022-10-02T23:44:11.340Z,84.28
2022-10-02T23:46:49.763Z,84.42
2022-10-02T23:49:22.850Z,84.26
2022-10-02T23:51:55.048Z,84.23
2022-10-02T23:54:39.763Z,84.18
2022-10-02T23:57:43.811Z,84.23
